sensor_id;sensor_type;location;lat;lon;timestamp;P1;durP1;ratioP1;P2;durP2;ratioP2
37777;SDS011;23615;51.506;7.678;2023-05-10T00:00:19;0.63;;;0.60;;
37777;SDS011;23615;51.506;7.678;2023-05-10T00:02:47;0.55;;;0.50;;
37777;SDS011;23615;51.506;7.678;2023-05-10T00:05:13;0.70;;;0.20;;
37777;SDS011;23615;51.506;7.678;2023-05-10T00:07:38;1.90;;;0.60;;
37777;SDS011;23615;51.506;7.678;2023-05-10T00:10:03;1.07;;;0.40;;
37777;SDS011;23615;51.506;7.678;2023-05-10T00:12:29;1.30;;;0.50;;
37777;SDS011;23615;51.506;7.678;2023-05-10T00:14:54;1.05;;;0.63;;
37777;SDS011;23615;51.506;7.678;2023-05-10T00:17:19;1.07;;;0.67;;
37777;SDS011;23615;51.506;7.678;2023-05-10T00:19:45;1.20;;;0.80;;
37777;SDS011;23615;51.506;7.678;2023-05-10T00:22:10;0.70;;;0.70;;
37777;SDS011;23615;51.506;7.678;2023-05-10T00:24:35;1.47;;;0.83;;
37777;SDS011;23615;51.506;7.678;2023-05-10T00:27:01;0.70;;;0.67;;
37777;SDS011;23615;51.506;7.678;2023-05-10T00:29:26;0.60;;;0.60;;
37777;SDS011;23615;51.506;7.678;2023-05-10T00:31:52;0.70;;;0.70;;
37777;SDS011;23615;51.506;7.678;2023-05-10T00:34:18;0.90;;;0.90;;
37777;SDS011;23615;51.506;7.678;2023-05-10T00:36:43;0.70;;;0.70;;
37777;SDS011;23615;51.506;7.678;2023-05-10T00:39:08;0.50;;;0.50;;
37777;SDS011;23615;51.506;7.678;2023-05-10T00:41:34;0.50;;;0.50;;
37777;SDS011;23615;51.506;7.678;2023-05-10T00:43:59;0.60;;;0.60;;
37777;SDS011;23615;51.506;7.678;2023-05-10T00:46:25;0.70;;;0.70;;
37777;SDS011;23615;51.506;7.678;2023-05-10T00:48:51;0.47;;;0.47;;
37777;SDS011;23615;51.506;7.678;2023-05-10T00:51:17;0.40;;;0.40;;
37777;SDS011;23615;51.506;7.678;2023-05-10T00:53:43;0.70;;;0.70;;
37777;SDS011;23615;51.506;7.678;2023-05-10T00:56:10;0.60;;;0.38;;
37777;SDS011;23615;51.506;7.678;2023-05-10T00:58:35;0.50;;;0.50;;
37777;SDS011;23615;51.506;7.678;2023-05-10T01:01:01;0.70;;;0.70;;
37777;SDS011;23615;51.506;7.678;2023-05-10T01:03:27;0.73;;;0.73;;
37777;SDS011;23615;51.506;7.678;2023-05-10T01:05:52;1.10;;;0.70;;
37777;SDS011;23615;51.506;7.678;2023-05-10T01:08:18;0.70;;;0.70;;
37777;SDS011;23615;51.506;7.678;2023-05-10T01:10:43;1.00;;;0.80;;
37777;SDS011;23615;51.506;7.678;2023-05-10T01:13:09;1.10;;;0.83;;
37777;SDS011;23615;51.506;7.678;2023-05-10T01:15:34;1.30;;;1.07;;
37777;SDS011;23615;51.506;7.678;2023-05-10T01:18:01;1.40;;;1.30;;
37777;SDS011;23615;51.506;7.678;2023-05-10T01:20:28;2.50;;;1.10;;
37777;SDS011;23615;51.506;7.678;2023-05-10T01:23:09;1.65;;;1.40;;
37777;SDS011;23615;51.506;7.678;2023-05-10T01:28:58;2.03;;;1.60;;
37777;SDS011;23615;51.506;7.678;2023-05-10T01:31:18;1.90;;;1.77;;
37777;SDS011;23615;51.506;7.678;2023-05-10T01:33:59;2.70;;;2.07;;
37777;SDS011;23615;51.506;7.678;2023-05-10T01:37:13;2.33;;;2.10;;
37777;SDS011;23615;51.506;7.678;2023-05-10T01:39:36;2.53;;;2.33;;
37777;SDS011;23615;51.506;7.678;2023-05-10T01:42:09;3.97;;;2.63;;
37777;SDS011;23615;51.506;7.678;2023-05-10T01:47:23;3.15;;;2.85;;
37777;SDS011;23615;51.506;7.678;2023-05-10T01:49:56;3.30;;;3.00;;
37777;SDS011;23615;51.506;7.678;2023-05-10T01:52:33;3.72;;;3.42;;
37777;SDS011;23615;51.506;7.678;2023-05-10T01:55:07;4.28;;;3.65;;
37777;SDS011;23615;51.506;7.678;2023-05-10T01:57:37;3.22;;;2.92;;
37777;SDS011;23615;51.506;7.678;2023-05-10T02:00:04;4.00;;;3.60;;
37777;SDS011;23615;51.506;7.678;2023-05-10T02:02:33;3.72;;;3.38;;
37777;SDS011;23615;51.506;7.678;2023-05-10T02:05:02;4.00;;;3.65;;
37777;SDS011;23615;51.506;7.678;2023-05-10T02:07:30;4.33;;;3.93;;
37777;SDS011;23615;51.506;7.678;2023-05-10T02:09:57;3.28;;;2.90;;
37777;SDS011;23615;51.506;7.678;2023-05-10T02:12:23;5.28;;;3.83;;
37777;SDS011;23615;51.506;7.678;2023-05-10T02:14:49;3.35;;;3.05;;
37777;SDS011;23615;51.506;7.678;2023-05-10T02:17:16;4.43;;;3.80;;
37777;SDS011;23615;51.506;7.678;2023-05-10T02:19:43;4.45;;;4.05;;
37777;SDS011;23615;51.506;7.678;2023-05-10T02:22:10;4.67;;;4.10;;
37777;SDS011;23615;51.506;7.678;2023-05-10T02:24:36;4.75;;;4.32;;
37777;SDS011;23615;51.506;7.678;2023-05-10T02:27:03;5.30;;;4.07;;
37777;SDS011;23615;51.506;7.678;2023-05-10T02:29:30;4.63;;;4.22;;
37777;SDS011;23615;51.506;7.678;2023-05-10T02:31:57;6.68;;;4.38;;
37777;SDS011;23615;51.506;7.678;2023-05-10T02:34:24;4.72;;;4.22;;
37777;SDS011;23615;51.506;7.678;2023-05-10T02:36:52;4.37;;;3.93;;
37777;SDS011;23615;51.506;7.678;2023-05-10T02:39:19;4.83;;;4.13;;
37777;SDS011;23615;51.506;7.678;2023-05-10T02:41:46;4.40;;;4.00;;
37777;SDS011;23615;51.506;7.678;2023-05-10T02:44:14;4.40;;;3.40;;
37777;SDS011;23615;51.506;7.678;2023-05-10T02:46:42;4.13;;;3.73;;
37777;SDS011;23615;51.506;7.678;2023-05-10T02:49:08;3.30;;;2.80;;
37777;SDS011;23615;51.506;7.678;2023-05-10T02:51:35;1.20;;;0.70;;
37777;SDS011;23615;51.506;7.678;2023-05-10T02:54:04;0.80;;;0.60;;
37777;SDS011;23615;51.506;7.678;2023-05-10T02:56:35;0.60;;;0.50;;
37777;SDS011;23615;51.506;7.678;2023-05-10T02:59:05;1.23;;;0.50;;
37777;SDS011;23615;51.506;7.678;2023-05-10T03:01:31;0.57;;;0.50;;
37777;SDS011;23615;51.506;7.678;2023-05-10T03:03:56;1.00;;;0.30;;
37777;SDS011;23615;51.506;7.678;2023-05-10T03:06:21;0.55;;;0.20;;
37777;SDS011;23615;51.506;7.678;2023-05-10T03:08:46;0.20;;;0.20;;
37777;SDS011;23615;51.506;7.678;2023-05-10T03:16:46;0.70;;;0.30;;
37777;SDS011;23615;51.506;7.678;2023-05-10T03:19:18;0.20;;;0.15;;
37777;SDS011;23615;51.506;7.678;2023-05-10T03:21:50;0.35;;;0.20;;
37777;SDS011;23615;51.506;7.678;2023-05-10T03:24:18;0.90;;;0.30;;
37777;SDS011;23615;51.506;7.678;2023-05-10T03:26:46;0.60;;;0.30;;
37777;SDS011;23615;51.506;7.678;2023-05-10T03:29:12;0.45;;;0.20;;
37777;SDS011;23615;51.506;7.678;2023-05-10T03:31:39;0.20;;;0.20;;
37777;SDS011;23615;51.506;7.678;2023-05-10T03:34:05;1.48;;;0.20;;
37777;SDS011;23615;51.506;7.678;2023-05-10T03:36:31;0.40;;;0.30;;
37777;SDS011;23615;51.506;7.678;2023-05-10T03:38:56;0.40;;;0.30;;
37777;SDS011;23615;51.506;7.678;2023-05-10T03:41:21;0.47;;;0.43;;
37777;SDS011;23615;51.506;7.678;2023-05-10T03:43:47;0.70;;;0.40;;
37777;SDS011;23615;51.506;7.678;2023-05-10T03:46:12;0.50;;;0.50;;
37777;SDS011;23615;51.506;7.678;2023-05-10T03:48:37;0.50;;;0.50;;
37777;SDS011;23615;51.506;7.678;2023-05-10T03:51:03;1.20;;;0.50;;
37777;SDS011;23615;51.506;7.678;2023-05-10T03:53:28;1.50;;;1.00;;
37777;SDS011;23615;51.506;7.678;2023-05-10T03:55:53;1.17;;;1.05;;
37777;SDS011;23615;51.506;7.678;2023-05-10T03:58:19;1.50;;;1.30;;
37777;SDS011;23615;51.506;7.678;2023-05-10T04:00:44;1.07;;;0.90;;
37777;SDS011;23615;51.506;7.678;2023-05-10T04:03:10;1.67;;;1.58;;
37777;SDS011;23615;51.506;7.678;2023-05-10T04:05:36;2.00;;;1.80;;
37777;SDS011;23615;51.506;7.678;2023-05-10T04:08:02;2.47;;;2.00;;
37777;SDS011;23615;51.506;7.678;2023-05-10T04:10:28;2.20;;;2.00;;
37777;SDS011;23615;51.506;7.678;2023-05-10T04:12:53;3.10;;;2.43;;
37777;SDS011;23615;51.506;7.678;2023-05-10T04:15:19;1.90;;;1.80;;
37777;SDS011;23615;51.506;7.678;2023-05-10T04:17:44;2.10;;;1.90;;
37777;SDS011;23615;51.506;7.678;2023-05-10T04:20:10;1.60;;;1.50;;
37777;SDS011;23615;51.506;7.678;2023-05-10T04:22:36;1.60;;;1.50;;
37777;SDS011;23615;51.506;7.678;2023-05-10T04:25:02;1.77;;;1.50;;
37777;SDS011;23615;51.506;7.678;2023-05-10T04:27:29;2.23;;;1.17;;
37777;SDS011;23615;51.506;7.678;2023-05-10T04:29:54;2.60;;;1.63;;
37777;SDS011;23615;51.506;7.678;2023-05-10T04:32:20;1.80;;;1.10;;
37777;SDS011;23615;51.506;7.678;2023-05-10T04:34:45;2.17;;;1.83;;
37777;SDS011;23615;51.506;7.678;2023-05-10T04:37:11;1.70;;;1.60;;
37777;SDS011;23615;51.506;7.678;2023-05-10T04:39:36;2.70;;;2.20;;
37777;SDS011;23615;51.506;7.678;2023-05-10T04:42:02;2.93;;;2.53;;
37777;SDS011;23615;51.506;7.678;2023-05-10T04:44:28;4.18;;;2.92;;
37777;SDS011;23615;51.506;7.678;2023-05-10T04:46:54;4.07;;;3.47;;
37777;SDS011;23615;51.506;7.678;2023-05-10T04:49:19;4.22;;;3.83;;
37777;SDS011;23615;51.506;7.678;2023-05-10T04:51:45;4.15;;;3.60;;
37777;SDS011;23615;51.506;7.678;2023-05-10T04:54:10;4.63;;;3.58;;
37777;SDS011;23615;51.506;7.678;2023-05-10T04:56:36;4.80;;;3.83;;
37777;SDS011;23615;51.506;7.678;2023-05-10T04:59:01;7.30;;;5.97;;
37777;SDS011;23615;51.506;7.678;2023-05-10T05:01:26;5.40;;;4.60;;
37777;SDS011;23615;51.506;7.678;2023-05-10T05:03:51;6.95;;;5.95;;
37777;SDS011;23615;51.506;7.678;2023-05-10T05:06:17;7.32;;;5.88;;
37777;SDS011;23615;51.506;7.678;2023-05-10T05:08:43;6.80;;;5.30;;
37777;SDS011;23615;51.506;7.678;2023-05-10T05:11:08;7.13;;;5.63;;
37777;SDS011;23615;51.506;7.678;2023-05-10T05:13:34;6.50;;;5.80;;
37777;SDS011;23615;51.506;7.678;2023-05-10T05:16:00;7.22;;;5.55;;
37777;SDS011;23615;51.506;7.678;2023-05-10T05:18:26;7.40;;;6.07;;
37777;SDS011;23615;51.506;7.678;2023-05-10T05:20:51;8.63;;;5.70;;
37777;SDS011;23615;51.506;7.678;2023-05-10T05:23:16;6.07;;;5.30;;
37777;SDS011;23615;51.506;7.678;2023-05-10T05:25:43;7.70;;;6.03;;
37777;SDS011;23615;51.506;7.678;2023-05-10T05:28:08;6.90;;;5.83;;
37777;SDS011;23615;51.506;7.678;2023-05-10T05:30:33;7.50;;;6.40;;
37777;SDS011;23615;51.506;7.678;2023-05-10T05:32:59;7.38;;;6.60;;
37777;SDS011;23615;51.506;7.678;2023-05-10T05:35:24;8.60;;;6.67;;
37777;SDS011;23615;51.506;7.678;2023-05-10T05:37:49;9.47;;;7.90;;
37777;SDS011;23615;51.506;7.678;2023-05-10T05:40:14;14.23;;;8.10;;
37777;SDS011;23615;51.506;7.678;2023-05-10T05:42:40;9.83;;;7.90;;
37777;SDS011;23615;51.506;7.678;2023-05-10T05:45:05;10.40;;;8.47;;
37777;SDS011;23615;51.506;7.678;2023-05-10T05:47:31;10.38;;;9.27;;
37777;SDS011;23615;51.506;7.678;2023-05-10T05:49:56;13.87;;;10.97;;
37777;SDS011;23615;51.506;7.678;2023-05-10T05:52:22;12.40;;;10.13;;
37777;SDS011;23615;51.506;7.678;2023-05-10T05:54:47;15.00;;;10.70;;
37777;SDS011;23615;51.506;7.678;2023-05-10T05:57:12;15.60;;;11.60;;
37777;SDS011;23615;51.506;7.678;2023-05-10T05:59:37;15.57;;;11.97;;
37777;SDS011;23615;51.506;7.678;2023-05-10T06:02:07;16.97;;;12.40;;
37777;SDS011;23615;51.506;7.678;2023-05-10T06:04:33;16.77;;;12.55;;
37777;SDS011;23615;51.506;7.678;2023-05-10T06:06:58;15.73;;;12.57;;
37777;SDS011;23615;51.506;7.678;2023-05-10T06:09:23;16.60;;;12.83;;
37777;SDS011;23615;51.506;7.678;2023-05-10T06:11:49;16.50;;;13.70;;
37777;SDS011;23615;51.506;7.678;2023-05-10T06:14:14;16.83;;;13.67;;
37777;SDS011;23615;51.506;7.678;2023-05-10T06:16:40;18.10;;;13.60;;
37777;SDS011;23615;51.506;7.678;2023-05-10T06:19:05;17.00;;;12.90;;
37777;SDS011;23615;51.506;7.678;2023-05-10T06:21:31;16.70;;;13.32;;
37777;SDS011;23615;51.506;7.678;2023-05-10T06:23:56;20.60;;;14.93;;
37777;SDS011;23615;51.506;7.678;2023-05-10T06:26:22;21.65;;;15.68;;
37777;SDS011;23615;51.506;7.678;2023-05-10T06:28:47;19.20;;;14.97;;
37777;SDS011;23615;51.506;7.678;2023-05-10T06:31:13;22.13;;;16.90;;
37777;SDS011;23615;51.506;7.678;2023-05-10T06:33:38;21.63;;;16.23;;
37777;SDS011;23615;51.506;7.678;2023-05-10T06:36:03;23.97;;;17.33;;
37777;SDS011;23615;51.506;7.678;2023-05-10T06:38:29;24.07;;;16.77;;
37777;SDS011;23615;51.506;7.678;2023-05-10T06:40:54;21.27;;;16.27;;
37777;SDS011;23615;51.506;7.678;2023-05-10T06:43:20;24.03;;;16.40;;
37777;SDS011;23615;51.506;7.678;2023-05-10T06:45:45;23.00;;;17.10;;
37777;SDS011;23615;51.506;7.678;2023-05-10T06:48:11;25.10;;;18.93;;
37777;SDS011;23615;51.506;7.678;2023-05-10T06:50:36;27.17;;;18.27;;
37777;SDS011;23615;51.506;7.678;2023-05-10T06:53:01;25.20;;;18.03;;
37777;SDS011;23615;51.506;7.678;2023-05-10T06:55:27;24.20;;;16.87;;
37777;SDS011;23615;51.506;7.678;2023-05-10T06:57:53;23.25;;;17.80;;
37777;SDS011;23615;51.506;7.678;2023-05-10T07:00:18;28.13;;;17.77;;
37777;SDS011;23615;51.506;7.678;2023-05-10T07:02:44;24.58;;;17.88;;
37777;SDS011;23615;51.506;7.678;2023-05-10T07:05:10;24.00;;;17.43;;
37777;SDS011;23615;51.506;7.678;2023-05-10T07:07:35;25.40;;;18.33;;
37777;SDS011;23615;51.506;7.678;2023-05-10T07:10:01;25.10;;;18.90;;
37777;SDS011;23615;51.506;7.678;2023-05-10T07:12:27;25.05;;;18.10;;
37777;SDS011;23615;51.506;7.678;2023-05-10T07:14:52;27.25;;;18.73;;
37777;SDS011;23615;51.506;7.678;2023-05-10T07:17:17;25.73;;;19.07;;
37777;SDS011;23615;51.506;7.678;2023-05-10T07:19:43;23.00;;;17.60;;
37777;SDS011;23615;51.506;7.678;2023-05-10T07:22:08;25.70;;;18.33;;
37777;SDS011;23615;51.506;7.678;2023-05-10T07:24:33;24.93;;;17.90;;
37777;SDS011;23615;51.506;7.678;2023-05-10T07:26:59;25.70;;;18.00;;
37777;SDS011;23615;51.506;7.678;2023-05-10T07:29:25;26.53;;;19.00;;
37777;SDS011;23615;51.506;7.678;2023-05-10T07:31:50;25.02;;;17.85;;
37777;SDS011;23615;51.506;7.678;2023-05-10T07:34:16;26.10;;;18.38;;
37777;SDS011;23615;51.506;7.678;2023-05-10T07:36:41;24.90;;;18.20;;
37777;SDS011;23615;51.506;7.678;2023-05-10T07:39:06;28.47;;;18.60;;
37777;SDS011;23615;51.506;7.678;2023-05-10T07:41:32;26.77;;;18.97;;
37777;SDS011;23615;51.506;7.678;2023-05-10T07:43:57;26.40;;;19.40;;
37777;SDS011;23615;51.506;7.678;2023-05-10T07:46:23;25.13;;;19.13;;
37777;SDS011;23615;51.506;7.678;2023-05-10T07:48:48;27.70;;;20.07;;
37777;SDS011;23615;51.506;7.678;2023-05-10T07:51:13;25.33;;;18.90;;
37777;SDS011;23615;51.506;7.678;2023-05-10T07:53:39;27.53;;;18.50;;
37777;SDS011;23615;51.506;7.678;2023-05-10T07:56:25;27.47;;;19.10;;
37777;SDS011;23615;51.506;7.678;2023-05-10T07:58:57;24.87;;;18.90;;
37777;SDS011;23615;51.506;7.678;2023-05-10T08:01:26;26.00;;;18.42;;
37777;SDS011;23615;51.506;7.678;2023-05-10T08:03:55;25.98;;;19.42;;
37777;SDS011;23615;51.506;7.678;2023-05-10T08:06:21;26.17;;;19.10;;
37777;SDS011;23615;51.506;7.678;2023-05-10T08:08:46;23.93;;;19.07;;
37777;SDS011;23615;51.506;7.678;2023-05-10T08:11:17;23.75;;;19.13;;
37777;SDS011;23615;51.506;7.678;2023-05-10T08:13:43;24.52;;;17.98;;
37777;SDS011;23615;51.506;7.678;2023-05-10T08:16:09;21.15;;;16.90;;
37777;SDS011;23615;51.506;7.678;2023-05-10T08:18:35;22.13;;;16.27;;
37777;SDS011;23615;51.506;7.678;2023-05-10T08:21:00;20.67;;;15.77;;
37777;SDS011;23615;51.506;7.678;2023-05-10T08:23:25;19.93;;;15.83;;
37777;SDS011;23615;51.506;7.678;2023-05-10T08:25:51;19.33;;;15.63;;
37777;SDS011;23615;51.506;7.678;2023-05-10T08:28:16;18.23;;;13.97;;
37777;SDS011;23615;51.506;7.678;2023-05-10T08:30:41;17.35;;;12.27;;
37777;SDS011;23615;51.506;7.678;2023-05-10T08:33:07;15.43;;;12.20;;
37777;SDS011;23615;51.506;7.678;2023-05-10T08:35:32;14.63;;;11.50;;
37777;SDS011;23615;51.506;7.678;2023-05-10T08:37:59;15.80;;;12.63;;
37777;SDS011;23615;51.506;7.678;2023-05-10T08:40:24;14.93;;;11.10;;
37777;SDS011;23615;51.506;7.678;2023-05-10T08:42:53;15.38;;;11.93;;
37777;SDS011;23615;51.506;7.678;2023-05-10T08:45:23;16.13;;;11.38;;
37777;SDS011;23615;51.506;7.678;2023-05-10T08:47:49;14.50;;;10.63;;
37777;SDS011;23615;51.506;7.678;2023-05-10T08:50:17;16.50;;;12.07;;
37777;SDS011;23615;51.506;7.678;2023-05-10T08:52:45;14.65;;;11.82;;
37777;SDS011;23615;51.506;7.678;2023-05-10T08:55:13;17.73;;;13.00;;
37777;SDS011;23615;51.506;7.678;2023-05-10T08:57:39;16.50;;;12.93;;
37777;SDS011;23615;51.506;7.678;2023-05-10T09:00:04;18.23;;;13.63;;
37777;SDS011;23615;51.506;7.678;2023-05-10T09:02:30;18.10;;;13.38;;
37777;SDS011;23615;51.506;7.678;2023-05-10T09:04:56;15.93;;;11.90;;
37777;SDS011;23615;51.506;7.678;2023-05-10T09:07:21;16.00;;;12.63;;
37777;SDS011;23615;51.506;7.678;2023-05-10T09:09:47;11.40;;;8.77;;
37777;SDS011;23615;51.506;7.678;2023-05-10T09:12:13;9.57;;;7.70;;
37777;SDS011;23615;51.506;7.678;2023-05-10T09:14:40;8.32;;;6.75;;
37777;SDS011;23615;51.506;7.678;2023-05-10T09:17:07;7.88;;;5.80;;
37777;SDS011;23615;51.506;7.678;2023-05-10T09:19:32;9.47;;;7.17;;
37777;SDS011;23615;51.506;7.678;2023-05-10T09:21:58;12.13;;;8.57;;
37777;SDS011;23615;51.506;7.678;2023-05-10T09:24:25;11.05;;;8.13;;
37777;SDS011;23615;51.506;7.678;2023-05-10T09:26:51;12.07;;;8.40;;
37777;SDS011;23615;51.506;7.678;2023-05-10T09:29:17;11.38;;;8.05;;
37777;SDS011;23615;51.506;7.678;2023-05-10T09:31:43;13.03;;;8.10;;
37777;SDS011;23615;51.506;7.678;2023-05-10T09:34:11;10.23;;;7.35;;
37777;SDS011;23615;51.506;7.678;2023-05-10T09:36:53;11.40;;;7.88;;
37777;SDS011;23615;51.506;7.678;2023-05-10T09:39:19;11.35;;;7.10;;
37777;SDS011;23615;51.506;7.678;2023-05-10T09:41:45;11.35;;;7.70;;
37777;SDS011;23615;51.506;7.678;2023-05-10T09:44:10;10.07;;;7.03;;
37777;SDS011;23615;51.506;7.678;2023-05-10T09:46:35;11.67;;;8.10;;
37777;SDS011;23615;51.506;7.678;2023-05-10T09:49:01;12.82;;;8.52;;
37777;SDS011;23615;51.506;7.678;2023-05-10T09:51:27;11.80;;;9.10;;
37777;SDS011;23615;51.506;7.678;2023-05-10T09:54:11;13.52;;;10.00;;
37777;SDS011;23615;51.506;7.678;2023-05-10T09:56:38;15.93;;;10.37;;
37777;SDS011;23615;51.506;7.678;2023-05-10T09:59:05;14.57;;;9.75;;
37777;SDS011;23615;51.506;7.678;2023-05-10T10:01:32;15.75;;;10.73;;
37777;SDS011;23615;51.506;7.678;2023-05-10T10:03:58;14.10;;;9.93;;
37777;SDS011;23615;51.506;7.678;2023-05-10T10:06:27;13.85;;;9.57;;
37777;SDS011;23615;51.506;7.678;2023-05-10T10:08:53;13.15;;;8.77;;
37777;SDS011;23615;51.506;7.678;2023-05-10T10:11:19;14.48;;;9.73;;
37777;SDS011;23615;51.506;7.678;2023-05-10T10:13:45;12.07;;;8.67;;
37777;SDS011;23615;51.506;7.678;2023-05-10T10:16:10;13.33;;;9.67;;
37777;SDS011;23615;51.506;7.678;2023-05-10T10:18:36;10.97;;;8.80;;
37777;SDS011;23615;51.506;7.678;2023-05-10T10:21:09;13.07;;;9.27;;
37777;SDS011;23615;51.506;7.678;2023-05-10T10:23:35;11.90;;;9.15;;
37777;SDS011;23615;51.506;7.678;2023-05-10T10:26:02;13.07;;;9.00;;
37777;SDS011;23615;51.506;7.678;2023-05-10T10:28:41;12.77;;;8.85;;
37777;SDS011;23615;51.506;7.678;2023-05-10T10:33:54;8.17;;;5.90;;
37777;SDS011;23615;51.506;7.678;2023-05-10T10:36:24;6.70;;;4.80;;
37777;SDS011;23615;51.506;7.678;2023-05-10T10:41:32;5.77;;;4.70;;
37777;SDS011;23615;51.506;7.678;2023-05-10T10:49:33;5.43;;;3.85;;
37777;SDS011;23615;51.506;7.678;2023-05-10T11:02:46;5.72;;;3.67;;
37777;SDS011;23615;51.506;7.678;2023-05-10T11:05:23;4.97;;;3.88;;
37777;SDS011;23615;51.506;7.678;2023-05-10T11:07:52;5.37;;;3.83;;
37777;SDS011;23615;51.506;7.678;2023-05-10T11:10:21;5.93;;;4.40;;
37777;SDS011;23615;51.506;7.678;2023-05-10T11:13:04;6.35;;;4.90;;
37777;SDS011;23615;51.506;7.678;2023-05-10T11:15:37;6.97;;;4.85;;
37777;SDS011;23615;51.506;7.678;2023-05-10T11:18:20;6.00;;;4.60;;
37777;SDS011;23615;51.506;7.678;2023-05-10T11:20:51;6.75;;;4.28;;
37777;SDS011;23615;51.506;7.678;2023-05-10T11:23:17;8.30;;;5.72;;
37777;SDS011;23615;51.506;7.678;2023-05-10T11:25:43;8.47;;;5.97;;
37777;SDS011;23615;51.506;7.678;2023-05-10T11:28:09;8.80;;;6.03;;
37777;SDS011;23615;51.506;7.678;2023-05-10T11:30:36;10.10;;;5.82;;
37777;SDS011;23615;51.506;7.678;2023-05-10T11:33:03;8.25;;;5.45;;
37777;SDS011;23615;51.506;7.678;2023-05-10T11:35:28;12.17;;;7.80;;
37777;SDS011;23615;51.506;7.678;2023-05-10T11:37:54;11.10;;;8.23;;
37777;SDS011;23615;51.506;7.678;2023-05-10T11:40:21;14.20;;;9.40;;
37777;SDS011;23615;51.506;7.678;2023-05-10T11:42:48;14.07;;;10.18;;
37777;SDS011;23615;51.506;7.678;2023-05-10T11:45:13;17.63;;;10.27;;
37777;SDS011;23615;51.506;7.678;2023-05-10T11:47:39;15.40;;;9.47;;
37777;SDS011;23615;51.506;7.678;2023-05-10T11:50:06;16.00;;;10.63;;
37777;SDS011;23615;51.506;7.678;2023-05-10T11:52:35;14.35;;;9.93;;
37777;SDS011;23615;51.506;7.678;2023-05-10T11:55:02;15.25;;;9.60;;
37777;SDS011;23615;51.506;7.678;2023-05-10T11:57:27;13.63;;;8.80;;
37777;SDS011;23615;51.506;7.678;2023-05-10T11:59:53;12.35;;;8.25;;
37777;SDS011;23615;51.506;7.678;2023-05-10T12:02:20;10.70;;;7.63;;
37777;SDS011;23615;51.506;7.678;2023-05-10T12:04:45;12.05;;;8.23;;
37777;SDS011;23615;51.506;7.678;2023-05-10T12:07:11;10.75;;;7.43;;
37777;SDS011;23615;51.506;7.678;2023-05-10T12:09:36;12.07;;;7.63;;
37777;SDS011;23615;51.506;7.678;2023-05-10T12:12:02;12.05;;;7.35;;
37777;SDS011;23615;51.506;7.678;2023-05-10T12:14:27;10.43;;;6.83;;
37777;SDS011;23615;51.506;7.678;2023-05-10T12:16:53;8.95;;;6.13;;
37777;SDS011;23615;51.506;7.678;2023-05-10T12:19:21;8.73;;;6.32;;
37777;SDS011;23615;51.506;7.678;2023-05-10T12:21:47;10.05;;;6.88;;
37777;SDS011;23615;51.506;7.678;2023-05-10T12:24:12;9.17;;;6.50;;
37777;SDS011;23615;51.506;7.678;2023-05-10T12:26:39;9.20;;;7.03;;
37777;SDS011;23615;51.506;7.678;2023-05-10T12:31:50;9.10;;;7.30;;
37777;SDS011;23615;51.506;7.678;2023-05-10T12:34:26;11.88;;;9.07;;
37777;SDS011;23615;51.506;7.678;2023-05-10T12:36:55;11.57;;;8.57;;
37777;SDS011;23615;51.506;7.678;2023-05-10T12:39:20;14.32;;;9.30;;
37777;SDS011;23615;51.506;7.678;2023-05-10T12:41:46;11.45;;;8.93;;
37777;SDS011;23615;51.506;7.678;2023-05-10T12:44:11;14.33;;;11.13;;
37777;SDS011;23615;51.506;7.678;2023-05-10T12:46:36;13.03;;;11.50;;
37777;SDS011;23615;51.506;7.678;2023-05-10T12:49:02;13.47;;;10.77;;
37777;SDS011;23615;51.506;7.678;2023-05-10T12:51:27;10.90;;;9.70;;
37777;SDS011;23615;51.506;7.678;2023-05-10T12:53:52;12.77;;;10.37;;
37777;SDS011;23615;51.506;7.678;2023-05-10T12:56:18;11.97;;;9.43;;
37777;SDS011;23615;51.506;7.678;2023-05-10T12:58:43;11.70;;;10.07;;
37777;SDS011;23615;51.506;7.678;2023-05-10T13:01:12;13.32;;;9.35;;
37777;SDS011;23615;51.506;7.678;2023-05-10T13:03:38;9.88;;;8.35;;
37777;SDS011;23615;51.506;7.678;2023-05-10T13:06:03;9.80;;;8.80;;
37777;SDS011;23615;51.506;7.678;2023-05-10T13:08:29;11.20;;;8.83;;
37777;SDS011;23615;51.506;7.678;2023-05-10T13:10:58;9.60;;;8.30;;
37777;SDS011;23615;51.506;7.678;2023-05-10T13:13:23;9.65;;;7.80;;
37777;SDS011;23615;51.506;7.678;2023-05-10T13:15:48;8.57;;;6.60;;
37777;SDS011;23615;51.506;7.678;2023-05-10T13:18:14;8.27;;;6.77;;
37777;SDS011;23615;51.506;7.678;2023-05-10T13:20:39;9.97;;;6.13;;
37777;SDS011;23615;51.506;7.678;2023-05-10T13:23:04;7.85;;;6.28;;
37777;SDS011;23615;51.506;7.678;2023-05-10T13:25:30;11.37;;;7.40;;
37777;SDS011;23615;51.506;7.678;2023-05-10T13:27:55;8.53;;;6.30;;
37777;SDS011;23615;51.506;7.678;2023-05-10T13:30:21;7.87;;;6.00;;
37777;SDS011;23615;51.506;7.678;2023-05-10T13:32:46;7.73;;;6.50;;
37777;SDS011;23615;51.506;7.678;2023-05-10T13:35:11;9.30;;;6.97;;
37777;SDS011;23615;51.506;7.678;2023-05-10T13:37:37;8.13;;;5.90;;
37777;SDS011;23615;51.506;7.678;2023-05-10T13:40:02;7.07;;;5.70;;
37777;SDS011;23615;51.506;7.678;2023-05-10T13:42:29;6.53;;;5.80;;
37777;SDS011;23615;51.506;7.678;2023-05-10T13:44:54;8.80;;;5.40;;
37777;SDS011;23615;51.506;7.678;2023-05-10T13:47:19;7.33;;;5.40;;
37777;SDS011;23615;51.506;7.678;2023-05-10T13:49:46;6.30;;;5.22;;
37777;SDS011;23615;51.506;7.678;2023-05-10T13:52:12;7.43;;;5.93;;
37777;SDS011;23615;51.506;7.678;2023-05-10T13:54:37;8.80;;;5.80;;
37777;SDS011;23615;51.506;7.678;2023-05-10T13:57:03;8.05;;;5.40;;
37777;SDS011;23615;51.506;7.678;2023-05-10T13:59:29;7.40;;;5.17;;
37777;SDS011;23615;51.506;7.678;2023-05-10T14:01:56;6.10;;;4.82;;
37777;SDS011;23615;51.506;7.678;2023-05-10T14:04:22;6.17;;;5.03;;
37777;SDS011;23615;51.506;7.678;2023-05-10T14:06:48;6.03;;;4.83;;
37777;SDS011;23615;51.506;7.678;2023-05-10T14:09:13;7.57;;;6.57;;
37777;SDS011;23615;51.506;7.678;2023-05-10T14:11:39;9.83;;;5.23;;
37777;SDS011;23615;51.506;7.678;2023-05-10T14:14:07;8.40;;;5.77;;
37777;SDS011;23615;51.506;7.678;2023-05-10T14:16:33;6.43;;;5.27;;
37777;SDS011;23615;51.506;7.678;2023-05-10T14:18:58;5.13;;;4.60;;
37777;SDS011;23615;51.506;7.678;2023-05-10T14:21:24;7.57;;;5.87;;
37777;SDS011;23615;51.506;7.678;2023-05-10T14:23:49;7.82;;;5.65;;
37777;SDS011;23615;51.506;7.678;2023-05-10T14:26:14;6.70;;;5.85;;
37777;SDS011;23615;51.506;7.678;2023-05-10T14:28:40;5.97;;;5.23;;
37777;SDS011;23615;51.506;7.678;2023-05-10T14:31:05;5.10;;;4.60;;
37777;SDS011;23615;51.506;7.678;2023-05-10T14:33:31;6.63;;;5.50;;
37777;SDS011;23615;51.506;7.678;2023-05-10T14:35:56;6.07;;;5.50;;
37777;SDS011;23615;51.506;7.678;2023-05-10T14:38:22;7.00;;;6.40;;
37777;SDS011;23615;51.506;7.678;2023-05-10T14:40:48;6.17;;;5.57;;
37777;SDS011;23615;51.506;7.678;2023-05-10T14:43:13;7.23;;;5.73;;
37777;SDS011;23615;51.506;7.678;2023-05-10T14:45:39;7.87;;;7.07;;
37777;SDS011;23615;51.506;7.678;2023-05-10T14:48:04;7.35;;;6.65;;
37777;SDS011;23615;51.506;7.678;2023-05-10T14:50:30;7.10;;;6.40;;
37777;SDS011;23615;51.506;7.678;2023-05-10T14:52:56;6.97;;;6.27;;
37777;SDS011;23615;51.506;7.678;2023-05-10T14:55:21;9.20;;;7.90;;
37777;SDS011;23615;51.506;7.678;2023-05-10T14:57:47;7.57;;;6.87;;
37777;SDS011;23615;51.506;7.678;2023-05-10T15:00:14;8.37;;;7.43;;
37777;SDS011;23615;51.506;7.678;2023-05-10T15:02:40;8.50;;;7.05;;
37777;SDS011;23615;51.506;7.678;2023-05-10T15:05:06;6.90;;;5.93;;
37777;SDS011;23615;51.506;7.678;2023-05-10T15:07:32;7.00;;;6.40;;
37777;SDS011;23615;51.506;7.678;2023-05-10T15:09:57;6.80;;;6.20;;